createdAt,value
2019-03-20T00:00:41.906Z,8.23
2019-03-20T00:03:10.937Z,5.80
2019-03-20T00:05:40.834Z,5.77
2019-03-20T00:08:10.068Z,5.15
2019-03-20T00:10:39.223Z,7.97
2019-03-20T00:13:08.278Z,4.90
2019-03-20T00:15:37.600Z,4.27
2019-03-20T00:18:06.991Z,7.87
2019-03-20T00:20:36.098Z,6.77
2019-03-20T00:23:05.119Z,4.72
2019-03-20T00:25:34.090Z,8.00
2019-03-20T00:28:03.315Z,6.80
2019-03-20T00:30:32.350Z,5.27
2019-03-20T00:33:01.673Z,13.15
2019-03-20T00:35:30.755Z,5.87
2019-03-20T00:38:00.044Z,5.17
2019-03-20T00:40:29.397Z,5.83
2019-03-20T00:42:58.358Z,6.37
2019-03-20T00:45:27.308Z,5.87
2019-03-20T00:47:56.331Z,6.00
2019-03-20T00:50:26.154Z,4.70
2019-03-20T00:52:55.171Z,8.50
2019-03-20T00:55:24.241Z,4.37
2019-03-20T00:57:53.207Z,4.08
2019-03-20T01:00:22.227Z,5.10
2019-03-20T01:02:51.284Z,6.08
2019-03-20T01:05:21.366Z,6.12
2019-03-20T01:07:50.439Z,5.00
2019-03-20T01:10:19.455Z,5.65
2019-03-20T01:12:48.425Z,7.22
2019-03-20T01:15:17.464Z,8.10
2019-03-20T01:17:46.570Z,4.22
2019-03-20T01:20:16.859Z,4.50
2019-03-20T01:22:46.015Z,6.62
2019-03-20T01:25:15.856Z,6.30
2019-03-20T01:27:44.919Z,7.15
2019-03-20T01:30:31.496Z,6.15
2019-03-20T01:33:02.081Z,7.70
2019-03-20T01:35:31.206Z,5.97
2019-03-20T01:38:00.134Z,5.95
2019-03-20T01:40:29.392Z,4.43
2019-03-20T01:42:58.868Z,6.95
2019-03-20T01:45:27.938Z,4.00
2019-03-20T01:47:57.006Z,5.37
2019-03-20T01:50:26.571Z,6.47
2019-03-20T01:52:55.583Z,7.03
2019-03-20T01:55:24.611Z,4.83
2019-03-20T01:57:53.890Z,5.65
2019-03-20T02:00:23.010Z,5.85
2019-03-20T02:02:52.052Z,6.83
2019-03-20T02:05:20.980Z,6.05
2019-03-20T02:07:49.998Z,4.67
2019-03-20T02:10:18.978Z,5.83
2019-03-20T02:12:47.942Z,8.98
2019-03-20T02:15:17.011Z,3.65
2019-03-20T02:17:46.018Z,5.65
2019-03-20T02:20:15.752Z,6.97
2019-03-20T02:22:44.879Z,6.75
2019-03-20T02:25:14.271Z,5.47
2019-03-20T02:27:43.493Z,5.72
2019-03-20T02:30:14.981Z,6.65
2019-03-20T02:32:44.500Z,8.50
2019-03-20T02:35:13.518Z,6.55
2019-03-20T02:37:42.560Z,6.03
2019-03-20T02:40:11.618Z,4.67
2019-03-20T02:42:40.786Z,5.75
2019-03-20T02:45:11.568Z,5.80
2019-03-20T02:47:40.516Z,5.33
2019-03-20T02:50:10.221Z,5.05
2019-03-20T02:52:39.236Z,7.78
2019-03-20T02:55:08.998Z,7.03
2019-03-20T02:57:38.413Z,8.03
2019-03-20T03:00:08.834Z,4.97
2019-03-20T03:02:38.207Z,4.22
2019-03-20T03:05:08.351Z,5.72
2019-03-20T03:07:37.410Z,3.52
2019-03-20T03:10:08.491Z,7.05
2019-03-20T03:12:37.764Z,5.37
2019-03-20T03:15:08.132Z,4.72
2019-03-20T03:17:37.085Z,5.47
2019-03-20T03:20:06.251Z,6.62
2019-03-20T03:22:35.290Z,5.87
2019-03-20T03:25:05.033Z,6.40
2019-03-20T03:27:34.654Z,5.83
2019-03-20T03:30:03.723Z,8.23
2019-03-20T03:32:32.755Z,4.80
2019-03-20T03:35:02.077Z,5.30
2019-03-20T03:37:31.248Z,6.67
2019-03-20T03:40:00.607Z,8.05
2019-03-20T03:42:29.910Z,6.83
2019-03-20T03:44:58.977Z,5.67
2019-03-20T03:47:28.357Z,6.00
2019-03-20T03:49:58.372Z,6.22
2019-03-20T03:52:27.741Z,4.60
2019-03-20T03:54:56.637Z,5.20
2019-03-20T03:57:25.627Z,5.50
2019-03-20T03:59:54.729Z,6.80
2019-03-20T04:02:24.311Z,7.50
2019-03-20T04:04:53.327Z,5.70
2019-03-20T04:07:23.815Z,4.93
2019-03-20T04:09:52.931Z,5.10
2019-03-20T04:12:21.973Z,6.80
2019-03-20T04:14:51.038Z,6.28
2019-03-20T04:17:27.802Z,6.00
2019-03-20T04:19:56.919Z,4.97
2019-03-20T04:22:26.349Z,6.42
2019-03-20T04:24:55.316Z,4.50
2019-03-20T04:27:24.363Z,5.27
2019-03-20T04:29:53.375Z,3.98
2019-03-20T04:32:22.692Z,5.77
2019-03-20T04:34:51.517Z,6.35
2019-03-20T04:37:20.546Z,11.63
2019-03-20T04:39:49.563Z,6.03
2019-03-20T04:42:18.528Z,7.10
2019-03-20T04:44:47.369Z,6.83
2019-03-20T04:47:16.580Z,8.33
2019-03-20T04:49:45.818Z,7.72
2019-03-20T04:52:15.044Z,4.23
2019-03-20T04:54:44.413Z,7.78
2019-03-20T04:57:13.347Z,5.30
2019-03-20T04:59:42.391Z,8.90
2019-03-20T05:02:11.458Z,5.13
2019-03-20T05:04:40.308Z,6.67
2019-03-20T05:07:09.201Z,5.17
2019-03-20T05:09:38.134Z,6.25
2019-03-20T05:12:07.426Z,10.53
2019-03-20T05:14:36.531Z,9.48
2019-03-20T05:17:05.579Z,4.47
2019-03-20T05:19:34.447Z,4.03
2019-03-20T05:22:03.421Z,7.57
2019-03-20T05:24:32.226Z,5.58
2019-03-20T05:27:01.540Z,6.90
2019-03-20T05:29:30.359Z,8.45
2019-03-20T05:31:59.218Z,8.07
2019-03-20T05:34:28.603Z,7.08
2019-03-20T05:36:57.707Z,7.77
2019-03-20T05:39:26.854Z,5.70
2019-03-20T05:41:55.708Z,7.50
2019-03-20T05:44:25.191Z,8.83
2019-03-20T05:46:54.224Z,5.33
2019-03-20T05:49:23.160Z,4.87
2019-03-20T05:51:52.118Z,8.73
2019-03-20T05:54:21.099Z,6.22
2019-03-20T05:56:50.211Z,5.07
2019-03-20T05:59:19.211Z,5.40
2019-03-20T06:01:48.224Z,9.83
2019-03-20T06:04:17.168Z,6.87
2019-03-20T06:06:46.299Z,7.57
2019-03-20T06:09:15.503Z,5.15
2019-03-20T06:11:44.603Z,6.78
2019-03-20T06:14:13.547Z,5.83
2019-03-20T06:16:42.815Z,7.07
2019-03-20T06:19:11.875Z,7.37
2019-03-20T06:21:40.897Z,6.47
2019-03-20T06:24:09.955Z,7.40
2019-03-20T06:26:39.444Z,5.87
2019-03-20T06:29:08.507Z,5.70
2019-03-20T06:31:37.422Z,8.50
2019-03-20T06:34:06.324Z,6.28
2019-03-20T06:36:35.399Z,5.67
2019-03-20T06:39:06.631Z,6.58
2019-03-20T06:41:35.648Z,6.30
2019-03-20T06:44:04.617Z,4.97
2019-03-20T06:46:34.051Z,5.67
2019-03-20T06:49:03.121Z,4.97
2019-03-20T06:51:32.587Z,10.43
2019-03-20T06:54:01.634Z,4.67
2019-03-20T06:56:30.581Z,6.43
2019-03-20T06:59:49.241Z,3.92
2019-03-20T07:02:19.841Z,6.40
2019-03-20T07:04:58.868Z,9.20
2019-03-20T07:07:43.687Z,3.87
2019-03-20T07:10:22.160Z,8.40
2019-03-20T07:12:51.478Z,7.13
2019-03-20T07:15:20.926Z,5.63
2019-03-20T07:17:49.922Z,4.67
2019-03-20T07:20:19.263Z,6.17
2019-03-20T07:22:48.649Z,6.10
2019-03-20T07:25:18.083Z,7.47
2019-03-20T07:27:47.447Z,5.93
2019-03-20T07:30:16.514Z,5.47
2019-03-20T07:32:45.486Z,8.47
2019-03-20T07:35:14.458Z,5.63
2019-03-20T07:37:43.489Z,7.10
2019-03-20T07:40:12.579Z,5.73
2019-03-20T07:42:41.627Z,6.53
2019-03-20T07:45:11.016Z,7.20
2019-03-20T07:47:40.240Z,5.43
2019-03-20T07:50:09.683Z,6.10
2019-03-20T07:52:38.887Z,8.97
2019-03-20T07:55:08.191Z,5.30
2019-03-20T07:57:37.243Z,6.70
2019-03-20T08:00:07.744Z,4.50
2019-03-20T08:02:37.155Z,5.30
2019-03-20T08:05:06.874Z,6.80
2019-03-20T08:07:36.254Z,5.60
2019-03-20T08:10:06.446Z,5.17
2019-03-20T08:12:35.582Z,5.37
2019-03-20T08:15:05.107Z,6.10
2019-03-20T08:17:34.062Z,3.87
2019-03-20T08:20:03.378Z,4.27
2019-03-20T08:22:32.299Z,6.77
2019-03-20T08:25:01.310Z,6.10
2019-03-20T08:27:30.382Z,7.30
2019-03-20T08:30:00.660Z,4.80
2019-03-20T08:32:29.603Z,6.03
2019-03-20T08:34:59.026Z,4.87
2019-03-20T08:37:28.127Z,3.10
2019-03-20T08:39:57.475Z,3.70
2019-03-20T08:42:26.552Z,5.70
2019-03-20T08:44:55.651Z,5.70
2019-03-20T08:47:24.738Z,4.10
2019-03-20T08:49:53.731Z,6.63
2019-03-20T08:52:23.098Z,6.40
2019-03-20T08:54:52.313Z,3.90
2019-03-20T08:57:21.380Z,5.53
2019-03-20T08:59:50.792Z,5.53
2019-03-20T09:02:19.728Z,5.93
2019-03-20T09:04:49.377Z,9.47
2019-03-20T09:07:18.475Z,5.70
2019-03-20T09:09:47.444Z,4.50
2019-03-20T09:12:17.075Z,3.77
2019-03-20T09:14:46.146Z,4.53
2019-03-20T09:17:15.234Z,5.33
2019-03-20T09:19:44.278Z,4.20
2019-03-20T09:22:13.363Z,6.00
2019-03-20T09:24:42.548Z,4.00
2019-03-20T09:27:11.704Z,4.57
2019-03-20T09:29:41.234Z,3.60
2019-03-20T09:32:10.349Z,4.10
2019-03-20T09:34:39.363Z,5.07
2019-03-20T09:37:08.967Z,4.90
2019-03-20T09:39:38.019Z,4.77
2019-03-20T09:42:07.261Z,4.47
2019-03-20T09:44:36.232Z,3.37
2019-03-20T09:47:05.811Z,7.10
2019-03-20T09:49:34.775Z,4.87
2019-03-20T09:52:03.886Z,7.07
2019-03-20T09:54:32.770Z,6.10
2019-03-20T09:57:01.953Z,5.07
2019-03-20T09:59:30.958Z,5.70
2019-03-20T10:02:00.268Z,5.20
2019-03-20T10:04:29.431Z,5.60
2019-03-20T10:06:58.503Z,5.93
2019-03-20T10:09:27.489Z,4.60
2019-03-20T10:11:57.595Z,9.13
2019-03-20T10:14:26.717Z,4.63
2019-03-20T10:16:55.810Z,4.30
2019-03-20T10:19:24.870Z,3.90
2019-03-20T10:21:53.822Z,2.63
2019-03-20T10:24:22.891Z,4.07
2019-03-20T10:26:51.903Z,2.33
2019-03-20T10:29:20.721Z,4.63
2019-03-20T10:31:49.844Z,3.07
2019-03-20T10:34:19.284Z,5.53
2019-03-20T10:36:48.138Z,4.07
2019-03-20T10:39:17.179Z,4.60
2019-03-20T10:41:46.591Z,6.03
2019-03-20T10:44:15.962Z,5.33
2019-03-20T10:46:44.959Z,4.87
2019-03-20T10:49:13.939Z,4.53
2019-03-20T10:51:42.908Z,4.23
2019-03-20T10:54:11.935Z,5.83
2019-03-20T10:56:40.926Z,3.50
2019-03-20T10:59:10.075Z,4.27
2019-03-20T11:01:42.750Z,5.57
2019-03-20T11:04:10.173Z,2.93
2019-03-20T11:06:39.353Z,5.63
2019-03-20T11:09:17.739Z,5.13
2019-03-20T11:11:39.885Z,5.10
2019-03-20T11:14:08.889Z,5.10
2019-03-20T11:16:37.832Z,4.23
2019-03-20T11:19:06.915Z,3.57
2019-03-20T11:21:35.953Z,4.43
2019-03-20T11:24:05.388Z,4.60
2019-03-20T11:26:34.367Z,4.73
2019-03-20T11:29:03.442Z,5.50
2019-03-20T11:31:32.661Z,6.17
2019-03-20T11:34:01.958Z,4.77
2019-03-20T11:36:30.888Z,4.37
2019-03-20T11:39:00.163Z,3.07
2019-03-20T11:41:29.218Z,3.73
2019-03-20T11:43:58.043Z,4.57
2019-03-20T11:46:27.252Z,3.70
2019-03-20T11:48:56.939Z,6.73
2019-03-20T11:51:25.844Z,2.80
2019-03-20T11:53:55.262Z,3.30
2019-03-20T11:56:24.343Z,3.20
2019-03-20T11:58:53.354Z,3.97
2019-03-20T12:01:22.515Z,4.23
2019-03-20T12:03:51.443Z,5.33
2019-03-20T12:06:20.470Z,4.97
2019-03-20T12:08:49.379Z,2.57
2019-03-20T12:11:18.624Z,3.03
2019-03-20T12:13:47.985Z,2.77
2019-03-20T12:16:17.283Z,3.23
2019-03-20T12:18:46.230Z,3.30
2019-03-20T12:21:15.191Z,4.53
2019-03-20T12:23:44.093Z,2.53
2019-03-20T12:26:13.095Z,2.40
2019-03-20T12:28:42.047Z,3.00
2019-03-20T12:31:11.108Z,1.87
2019-03-20T12:33:40.164Z,3.97
2019-03-20T12:36:09.280Z,3.17
2019-03-20T12:38:38.303Z,3.93
2019-03-20T12:41:07.299Z,3.17
2019-03-20T12:43:36.372Z,4.63
2019-03-20T12:46:05.423Z,2.90
2019-03-20T12:48:35.133Z,3.33
2019-03-20T12:51:04.485Z,2.13
2019-03-20T12:53:33.827Z,3.80
2019-03-20T12:56:02.739Z,1.87
2019-03-20T12:58:31.972Z,1.80
2019-03-20T13:01:01.070Z,1.97
2019-03-20T13:03:30.844Z,2.13
2019-03-20T13:06:00.111Z,1.50
2019-03-20T13:08:29.451Z,1.80
2019-03-20T13:10:58.830Z,2.20
2019-03-20T13:13:27.787Z,1.83
2019-03-20T13:15:56.762Z,2.47
2019-03-20T13:18:25.831Z,1.90
2019-03-20T13:20:54.768Z,1.90
2019-03-20T13:23:25.918Z,1.87
2019-03-20T13:25:54.865Z,2.63
2019-03-20T13:28:23.990Z,2.50
2019-03-20T13:30:59.358Z,3.03
2019-03-20T13:33:28.464Z,2.03
2019-03-20T13:35:57.335Z,3.03
2019-03-20T13:38:26.186Z,1.80
2019-03-20T13:40:55.151Z,2.23
2019-03-20T13:43:23.995Z,2.17
2019-03-20T13:45:53.247Z,1.83
2019-03-20T13:48:22.704Z,3.70
2019-03-20T13:50:51.675Z,3.37
2019-03-20T13:53:20.734Z,3.30
2019-03-20T13:55:50.115Z,2.97
2019-03-20T13:58:19.127Z,2.23
2019-03-20T14:00:48.231Z,3.37
2019-03-20T14:03:17.271Z,4.83
2019-03-20T14:05:46.334Z,2.03
2019-03-20T14:08:15.439Z,3.60
2019-03-20T14:10:50.442Z,2.97
2019-03-20T14:13:15.196Z,2.60
2019-03-20T14:15:44.526Z,2.60
2019-03-20T14:18:13.457Z,2.60
2019-03-20T14:20:42.441Z,4.43
2019-03-20T14:23:11.746Z,2.43
2019-03-20T14:25:40.633Z,3.40
2019-03-20T14:28:09.967Z,4.00
2019-03-20T14:30:38.943Z,1.70
2019-03-20T14:33:08.243Z,1.60
2019-03-20T14:35:37.304Z,2.77
2019-03-20T14:38:06.271Z,3.47
2019-03-20T14:40:36.552Z,2.43
2019-03-20T14:43:06.108Z,2.60
2019-03-20T14:45:35.319Z,1.73
2019-03-20T14:48:04.366Z,2.10
2019-03-20T14:50:33.454Z,3.17
2019-03-20T14:53:02.515Z,3.23
2019-03-20T14:55:31.550Z,5.10
2019-03-20T14:58:00.586Z,1.93
2019-03-20T15:00:29.612Z,2.43
2019-03-20T15:02:58.829Z,2.33
2019-03-20T15:05:27.922Z,2.20
2019-03-20T15:07:57.044Z,3.03
2019-03-20T15:10:26.149Z,3.70
2019-03-20T15:12:55.343Z,5.93
2019-03-20T15:15:30.592Z,3.30
2019-03-20T15:17:59.541Z,7.60
2019-03-20T15:20:28.559Z,2.33
2019-03-20T15:22:57.663Z,2.80
2019-03-20T15:25:26.606Z,3.83
2019-03-20T15:27:55.951Z,3.87
2019-03-20T15:30:25.078Z,2.50
2019-03-20T15:32:54.173Z,3.67
2019-03-20T15:35:23.723Z,3.60
2019-03-20T15:37:53.147Z,3.03
2019-03-20T15:40:22.315Z,2.33
2019-03-20T15:42:51.385Z,3.27
2019-03-20T15:45:20.429Z,3.40
2019-03-20T15:47:49.915Z,2.43
2019-03-20T15:50:19.272Z,2.87
2019-03-20T15:52:48.443Z,3.77
2019-03-20T15:55:20.515Z,5.93
2019-03-20T15:57:49.629Z,2.53
2019-03-20T16:00:19.103Z,3.80
2019-03-20T16:02:49.146Z,2.60
2019-03-20T16:05:18.188Z,1.67
2019-03-20T16:07:47.081Z,2.83
2019-03-20T16:10:18.018Z,2.33
2019-03-20T16:12:47.051Z,2.80
2019-03-20T16:15:17.743Z,2.40
2019-03-20T16:17:46.754Z,2.93
2019-03-20T16:20:15.795Z,1.50
2019-03-20T16:22:45.167Z,2.40
2019-03-20T16:25:14.857Z,1.33
2019-03-20T16:27:43.815Z,2.80
2019-03-20T16:30:15.387Z,1.83
2019-03-20T16:32:44.711Z,4.17
2019-03-20T16:35:13.634Z,3.07
2019-03-20T16:37:42.698Z,1.27
2019-03-20T16:40:14.285Z,1.17
2019-03-20T16:42:43.191Z,2.13
2019-03-20T16:45:20.780Z,1.27
2019-03-20T16:47:49.814Z,2.40
2019-03-20T16:50:18.873Z,1.67
2019-03-20T16:52:48.049Z,2.43
2019-03-20T16:55:17.411Z,1.10
2019-03-20T16:57:46.311Z,1.63
2019-03-20T17:00:23.419Z,1.57
2019-03-20T17:02:52.439Z,2.90
2019-03-20T17:05:22.025Z,1.40
2019-03-20T17:07:51.204Z,0.90
2019-03-20T17:10:22.539Z,1.20
2019-03-20T17:12:51.544Z,1.77
2019-03-20T17:15:22.230Z,1.13
2019-03-20T17:17:51.225Z,1.90
2019-03-20T17:20:20.359Z,1.10
2019-03-20T17:22:49.342Z,1.17
2019-03-20T17:25:18.714Z,0.70
2019-03-20T17:27:47.646Z,0.80
2019-03-20T17:30:19.059Z,1.03
2019-03-20T17:32:48.105Z,1.37
2019-03-20T17:35:17.077Z,1.87
2019-03-20T17:37:46.025Z,1.10
2019-03-20T17:40:16.171Z,0.57
2019-03-20T17:42:45.166Z,2.30
2019-03-20T17:45:15.143Z,1.70
2019-03-20T17:47:44.126Z,1.43
2019-03-20T17:50:15.945Z,0.77
2019-03-20T17:52:45.604Z,1.53
2019-03-20T17:55:14.605Z,2.07
2019-03-20T17:57:44.110Z,2.23
2019-03-20T18:00:16.312Z,1.50
2019-03-20T18:02:45.214Z,4.10
2019-03-20T18:05:14.378Z,1.90
2019-03-20T18:07:43.322Z,1.20
2019-03-20T18:10:12.641Z,2.43
2019-03-20T18:12:41.678Z,0.70
2019-03-20T18:15:11.663Z,2.40
2019-03-20T18:17:40.637Z,1.90
2019-03-20T18:20:10.858Z,1.03
2019-03-20T18:22:39.902Z,2.10
2019-03-20T18:25:09.998Z,2.07
2019-03-20T18:27:39.383Z,1.83
2019-03-20T18:30:15.647Z,1.97
2019-03-20T18:32:44.554Z,3.20
2019-03-20T18:35:14.155Z,2.43
2019-03-20T18:37:43.686Z,4.00
2019-03-20T18:40:14.398Z,1.77
2019-03-20T18:42:43.423Z,1.80
2019-03-20T18:45:13.082Z,2.07
2019-03-20T18:47:42.224Z,4.57
2019-03-20T18:50:11.526Z,3.97
2019-03-20T18:52:40.519Z,2.70
2019-03-20T18:55:10.314Z,3.17
2019-03-20T18:57:39.594Z,5.70
2019-03-20T19:00:12.346Z,5.27
2019-03-20T19:02:41.306Z,7.27
2019-03-20T19:05:12.745Z,4.90
2019-03-20T19:07:42.094Z,5.30
2019-03-20T19:10:11.497Z,8.10
2019-03-20T19:12:40.545Z,4.47
2019-03-20T19:15:09.908Z,4.20
2019-03-20T19:17:39.063Z,3.27
2019-03-20T19:20:08.965Z,2.60
2019-03-20T19:22:38.342Z,2.70
2019-03-20T19:25:08.467Z,4.10
2019-03-20T19:27:37.587Z,4.30
2019-03-20T19:30:10.568Z,2.62
2019-03-20T19:32:39.590Z,2.90
2019-03-20T19:35:08.880Z,2.13
2019-03-20T19:37:38.550Z,4.73
2019-03-20T19:40:07.945Z,8.38
2019-03-20T19:42:37.353Z,4.78
2019-03-20T19:45:06.773Z,4.93
2019-03-20T19:47:35.705Z,4.43
2019-03-20T19:50:05.771Z,3.33
2019-03-20T19:52:34.723Z,4.50
2019-03-20T19:55:03.905Z,4.70
2019-03-20T19:57:33.136Z,3.45
2019-03-20T20:00:02.514Z,3.53
2019-03-20T20:02:31.753Z,4.45
2019-03-20T20:05:00.668Z,2.30
2019-03-20T20:07:29.525Z,1.70
2019-03-20T20:09:58.404Z,2.47
2019-03-20T20:12:31.357Z,3.65
2019-03-20T20:14:58.750Z,2.70
2019-03-20T20:17:27.704Z,3.42
2019-03-20T20:19:56.711Z,4.45
2019-03-20T20:22:25.699Z,3.43
2019-03-20T20:24:54.813Z,5.23
2019-03-20T20:27:24.262Z,2.20
2019-03-20T20:29:53.147Z,4.05
2019-03-20T20:32:22.093Z,5.27
2019-03-20T20:34:51.635Z,3.87
2019-03-20T20:37:20.727Z,3.02
2019-03-20T20:39:50.103Z,2.15
2019-03-20T20:42:19.379Z,3.80
2019-03-20T20:44:48.419Z,4.28
2019-03-20T20:47:17.344Z,3.20
2019-03-20T20:49:46.363Z,3.42
2019-03-20T20:52:19.629Z,4.70
2019-03-20T20:54:45.962Z,3.45
2019-03-20T20:57:14.837Z,4.57
2019-03-20T20:59:43.900Z,3.30
2019-03-20T21:02:13.716Z,6.43
2019-03-20T21:04:42.896Z,5.22
2019-03-20T21:07:12.130Z,5.63
2019-03-20T21:09:41.199Z,3.52
2019-03-20T21:12:10.220Z,3.33
2019-03-20T21:14:39.166Z,4.25
2019-03-20T21:17:12.144Z,5.67
2019-03-20T21:19:41.820Z,8.03
2019-03-20T21:23:04.247Z,3.40
2019-03-20T21:25:33.626Z,7.23
2019-03-20T21:28:50.510Z,4.75
2019-03-20T21:31:47.262Z,4.83
2019-03-20T21:34:42.487Z,5.28
2019-03-20T21:37:51.065Z,5.37
2019-03-20T21:40:21.759Z,4.58
2019-03-20T21:43:26.995Z,6.53
2019-03-20T21:46:29.906Z,5.17
2019-03-20T21:48:59.441Z,5.37
2019-03-20T21:51:28.902Z,4.33
2019-03-20T21:54:42.755Z,3.92
2019-03-20T21:57:42.070Z,6.43
2019-03-20T22:00:50.731Z,4.90
2019-03-20T22:03:20.313Z,4.00
2019-03-20T22:06:33.736Z,4.60
2019-03-20T22:09:10.674Z,3.52
2019-03-20T22:12:05.911Z,5.03
2019-03-20T22:14:35.487Z,6.58
2019-03-20T22:17:32.212Z,3.57
2019-03-20T22:20:14.452Z,3.50
2019-03-20T22:23:30.359Z,3.83
2019-03-20T22:26:32.506Z,5.22
2019-03-20T22:29:20.663Z,3.42
2019-03-20T22:32:15.693Z,3.67
2019-03-20T22:35:29.296Z,4.00
2019-03-20T22:37:59.875Z,6.37
2019-03-20T22:41:16.283Z,3.43
2019-03-20T22:43:59.199Z,4.25
2019-03-20T22:47:01.799Z,5.70
2019-03-20T22:50:01.618Z,6.60
2019-03-20T22:52:45.192Z,3.83
2019-03-20T22:55:51.658Z,4.12
2019-03-20T22:58:42.736Z,4.75
2019-03-20T23:01:44.973Z,4.90
2019-03-20T23:04:32.584Z,4.53
2019-03-20T23:07:02.113Z,6.28
2019-03-20T23:09:31.755Z,7.78
2019-03-20T23:12:03.713Z,5.87
2019-03-20T23:14:33.243Z,5.37
2019-03-20T23:17:02.748Z,4.77
2019-03-20T23:19:32.440Z,5.55
2019-03-20T23:22:01.869Z,4.83
2019-03-20T23:24:31.384Z,7.15
2019-03-20T23:27:02.375Z,4.47
2019-03-20T23:29:31.761Z,4.58
2019-03-20T23:32:01.177Z,6.33
2019-03-20T23:34:30.976Z,3.92
2019-03-20T23:37:00.663Z,5.00
2019-03-20T23:39:30.060Z,3.83
2019-03-20T23:41:59.561Z,5.00
2019-03-20T23:44:29.242Z,4.42
2019-03-20T23:46:58.686Z,3.37
2019-03-20T23:49:28.202Z,4.22
2019-03-20T23:51:58.069Z,6.40
2019-03-20T23:54:31.655Z,4.67
2019-03-20T23:57:01.110Z,6.37
2019-03-20T23:59:30.567Z,9.55
